sensor_id;sensor_type;location;lat;lon;timestamp;P1;durP1;ratioP1;P2;durP2;ratioP2
4309;SDS011;2168;53.576;9.980;2023-02-12T00:00:31;5.73;;;5.13;;
4309;SDS011;2168;53.576;9.980;2023-02-12T00:02:56;6.97;;;5.23;;
4309;SDS011;2168;53.576;9.980;2023-02-12T00:05:21;6.33;;;5.40;;
4309;SDS011;2168;53.576;9.980;2023-02-12T00:07:47;7.30;;;5.00;;
4309;SDS011;2168;53.576;9.980;2023-02-12T00:10:12;7.03;;;5.43;;
4309;SDS011;2168;53.576;9.980;2023-02-12T00:12:37;6.77;;;4.93;;
4309;SDS011;2168;53.576;9.980;2023-02-12T00:15:03;7.00;;;5.10;;
4309;SDS011;2168;53.576;9.980;2023-02-12T00:17:28;6.50;;;4.83;;
4309;SDS011;2168;53.576;9.980;2023-02-12T00:19:53;5.47;;;4.93;;
4309;SDS011;2168;53.576;9.980;2023-02-12T00:22:18;5.73;;;4.93;;
4309;SDS011;2168;53.576;9.980;2023-02-12T00:24:43;6.07;;;5.07;;
4309;SDS011;2168;53.576;9.980;2023-02-12T00:27:09;6.17;;;4.57;;
4309;SDS011;2168;53.576;9.980;2023-02-12T00:29:34;6.60;;;4.90;;
4309;SDS011;2168;53.576;9.980;2023-02-12T00:31:59;7.20;;;5.30;;
4309;SDS011;2168;53.576;9.980;2023-02-12T00:34:24;5.60;;;4.60;;
4309;SDS011;2168;53.576;9.980;2023-02-12T00:36:49;8.40;;;4.73;;
4309;SDS011;2168;53.576;9.980;2023-02-12T00:39:15;6.07;;;4.90;;
4309;SDS011;2168;53.576;9.980;2023-02-12T00:41:40;4.97;;;4.23;;
4309;SDS011;2168;53.576;9.980;2023-02-12T00:44:05;4.80;;;4.30;;
4309;SDS011;2168;53.576;9.980;2023-02-12T00:46:30;5.73;;;4.67;;
4309;SDS011;2168;53.576;9.980;2023-02-12T00:48:55;4.70;;;4.30;;
4309;SDS011;2168;53.576;9.980;2023-02-12T00:51:20;5.97;;;4.93;;
4309;SDS011;2168;53.576;9.980;2023-02-12T00:53:46;6.10;;;4.83;;
4309;SDS011;2168;53.576;9.980;2023-02-12T00:56:11;6.30;;;4.73;;
4309;SDS011;2168;53.576;9.980;2023-02-12T00:58:36;5.00;;;4.20;;
4309;SDS011;2168;53.576;9.980;2023-02-12T01:01:01;4.60;;;3.90;;
4309;SDS011;2168;53.576;9.980;2023-02-12T01:03:27;5.50;;;5.00;;
4309;SDS011;2168;53.576;9.980;2023-02-12T01:05:52;9.80;;;4.17;;
4309;SDS011;2168;53.576;9.980;2023-02-12T01:08:17;5.27;;;4.03;;
4309;SDS011;2168;53.576;9.980;2023-02-12T01:10:43;4.07;;;3.60;;
4309;SDS011;2168;53.576;9.980;2023-02-12T01:13:12;4.57;;;4.17;;
4309;SDS011;2168;53.576;9.980;2023-02-12T01:15:38;4.47;;;3.97;;
4309;SDS011;2168;53.576;9.980;2023-02-12T01:18:03;3.97;;;3.33;;
4309;SDS011;2168;53.576;9.980;2023-02-12T01:20:28;3.90;;;3.50;;
4309;SDS011;2168;53.576;9.980;2023-02-12T01:22:54;3.30;;;3.10;;
4309;SDS011;2168;53.576;9.980;2023-02-12T01:25:19;4.27;;;3.97;;
4309;SDS011;2168;53.576;9.980;2023-02-12T01:27:44;4.70;;;3.90;;
4309;SDS011;2168;53.576;9.980;2023-02-12T01:30:10;4.77;;;4.20;;
4309;SDS011;2168;53.576;9.980;2023-02-12T01:32:36;4.73;;;4.30;;
4309;SDS011;2168;53.576;9.980;2023-02-12T01:35:01;4.30;;;3.90;;
4309;SDS011;2168;53.576;9.980;2023-02-12T01:37:27;8.13;;;4.20;;
4309;SDS011;2168;53.576;9.980;2023-02-12T01:39:52;6.70;;;4.63;;
4309;SDS011;2168;53.576;9.980;2023-02-12T01:42:17;7.70;;;5.50;;
4309;SDS011;2168;53.576;9.980;2023-02-12T01:47:27;6.00;;;5.20;;
4309;SDS011;2168;53.576;9.980;2023-02-12T01:49:52;6.87;;;4.87;;
4309;SDS011;2168;53.576;9.980;2023-02-12T01:52:19;7.47;;;5.50;;
4309;SDS011;2168;53.576;9.980;2023-02-12T01:54:45;7.37;;;5.20;;
4309;SDS011;2168;53.576;9.980;2023-02-12T01:57:11;9.57;;;6.10;;
4309;SDS011;2168;53.576;9.980;2023-02-12T01:59:37;9.27;;;5.57;;
4309;SDS011;2168;53.576;9.980;2023-02-12T02:02:03;9.03;;;5.77;;
4309;SDS011;2168;53.576;9.980;2023-02-12T02:04:29;7.93;;;5.47;;
4309;SDS011;2168;53.576;9.980;2023-02-12T02:06:57;7.90;;;6.20;;
4309;SDS011;2168;53.576;9.980;2023-02-12T02:09:23;8.10;;;5.20;;
4309;SDS011;2168;53.576;9.980;2023-02-12T02:11:49;9.30;;;6.37;;
4309;SDS011;2168;53.576;9.980;2023-02-12T02:14:33;11.33;;;5.80;;
4309;SDS011;2168;53.576;9.980;2023-02-12T02:17:06;10.27;;;6.27;;
4309;SDS011;2168;53.576;9.980;2023-02-12T02:25:02;8.40;;;5.70;;
4309;SDS011;2168;53.576;9.980;2023-02-12T02:30:18;5.93;;;5.17;;
4309;SDS011;2168;53.576;9.980;2023-02-12T02:35:20;9.27;;;5.93;;
4309;SDS011;2168;53.576;9.980;2023-02-12T02:37:50;9.90;;;6.70;;
4309;SDS011;2168;53.576;9.980;2023-02-12T02:40:24;9.30;;;6.20;;
4309;SDS011;2168;53.576;9.980;2023-02-12T02:43:14;8.17;;;5.77;;
4309;SDS011;2168;53.576;9.980;2023-02-12T02:45:47;7.63;;;5.70;;
4309;SDS011;2168;53.576;9.980;2023-02-12T02:50:39;8.88;;;6.05;;
4309;SDS011;2168;53.576;9.980;2023-02-12T02:53:15;10.53;;;6.13;;
4309;SDS011;2168;53.576;9.980;2023-02-12T02:55:43;8.10;;;5.37;;
4309;SDS011;2168;53.576;9.980;2023-02-12T02:58:15;10.83;;;5.23;;
4309;SDS011;2168;53.576;9.980;2023-02-12T03:00:45;8.53;;;5.57;;
4309;SDS011;2168;53.576;9.980;2023-02-12T03:05:47;8.07;;;5.70;;
4309;SDS011;2168;53.576;9.980;2023-02-12T03:08:17;7.63;;;5.40;;
4309;SDS011;2168;53.576;9.980;2023-02-12T03:10:49;9.80;;;5.87;;
4309;SDS011;2168;53.576;9.980;2023-02-12T03:13:18;9.07;;;5.70;;
4309;SDS011;2168;53.576;9.980;2023-02-12T03:15:46;13.27;;;6.47;;
4309;SDS011;2168;53.576;9.980;2023-02-12T03:18:18;9.97;;;6.60;;
4309;SDS011;2168;53.576;9.980;2023-02-12T03:20:45;10.90;;;6.50;;
4309;SDS011;2168;53.576;9.980;2023-02-12T03:23:16;9.67;;;5.93;;
4309;SDS011;2168;53.576;9.980;2023-02-12T03:25:48;13.50;;;6.73;;
4309;SDS011;2168;53.576;9.980;2023-02-12T03:28:31;8.33;;;5.67;;
4309;SDS011;2168;53.576;9.980;2023-02-12T03:30:59;15.03;;;5.93;;
4309;SDS011;2168;53.576;9.980;2023-02-12T03:33:35;9.57;;;5.63;;
4309;SDS011;2168;53.576;9.980;2023-02-12T03:36:05;10.17;;;4.80;;
4309;SDS011;2168;53.576;9.980;2023-02-12T03:38:36;6.30;;;4.63;;
4309;SDS011;2168;53.576;9.980;2023-02-12T03:41:04;9.17;;;4.90;;
4309;SDS011;2168;53.576;9.980;2023-02-12T03:43:32;6.57;;;4.63;;
4309;SDS011;2168;53.576;9.980;2023-02-12T03:46:09;8.40;;;4.80;;
4309;SDS011;2168;53.576;9.980;2023-02-12T03:48:40;7.20;;;5.10;;
4309;SDS011;2168;53.576;9.980;2023-02-12T03:51:14;11.60;;;5.23;;
4309;SDS011;2168;53.576;9.980;2023-02-12T03:53:41;8.10;;;4.10;;
4309;SDS011;2168;53.576;9.980;2023-02-12T03:56:09;15.57;;;4.90;;
4309;SDS011;2168;53.576;9.980;2023-02-12T03:58:36;13.43;;;4.47;;
4309;SDS011;2168;53.576;9.980;2023-02-12T04:01:02;5.93;;;4.23;;
4309;SDS011;2168;53.576;9.980;2023-02-12T04:03:28;9.93;;;4.17;;
4309;SDS011;2168;53.576;9.980;2023-02-12T04:05:53;7.07;;;4.13;;
4309;SDS011;2168;53.576;9.980;2023-02-12T04:08:18;5.53;;;4.00;;
4309;SDS011;2168;53.576;9.980;2023-02-12T04:16:39;9.97;;;4.13;;
4309;SDS011;2168;53.576;9.980;2023-02-12T04:18:44;3.60;;;3.27;;
4309;SDS011;2168;53.576;9.980;2023-02-12T04:21:12;5.30;;;3.87;;
4309;SDS011;2168;53.576;9.980;2023-02-12T04:28:56;12.53;;;4.90;;
4309;SDS011;2168;53.576;9.980;2023-02-12T04:34:04;164.60;;;11.93;;
4309;SDS011;2168;53.576;9.980;2023-02-12T04:36:32;65.77;;;7.40;;
4309;SDS011;2168;53.576;9.980;2023-02-12T04:38:59;92.17;;;7.13;;
4309;SDS011;2168;53.576;9.980;2023-02-12T04:41:26;70.97;;;6.87;;
4309;SDS011;2168;53.576;9.980;2023-02-12T04:43:52;14.27;;;5.33;;
4309;SDS011;2168;53.576;9.980;2023-02-12T04:46:18;116.50;;;9.20;;
4309;SDS011;2168;53.576;9.980;2023-02-12T04:48:51;76.27;;;7.60;;
4309;SDS011;2168;53.576;9.980;2023-02-12T04:51:17;280.30;;;13.33;;
4309;SDS011;2168;53.576;9.980;2023-02-12T04:53:42;137.40;;;9.37;;
4309;SDS011;2168;53.576;9.980;2023-02-12T04:56:09;19.20;;;6.03;;
4309;SDS011;2168;53.576;9.980;2023-02-12T04:58:35;109.40;;;9.13;;
4309;SDS011;2168;53.576;9.980;2023-02-12T05:01:01;171.13;;;13.03;;
4309;SDS011;2168;53.576;9.980;2023-02-12T05:03:26;172.40;;;12.23;;
4309;SDS011;2168;53.576;9.980;2023-02-12T05:05:51;219.00;;;14.63;;
4309;SDS011;2168;53.576;9.980;2023-02-12T05:08:17;219.03;;;15.07;;
4309;SDS011;2168;53.576;9.980;2023-02-12T05:10:43;33.13;;;8.30;;
4309;SDS011;2168;53.576;9.980;2023-02-12T05:13:09;163.17;;;12.93;;
4309;SDS011;2168;53.576;9.980;2023-02-12T05:15:34;241.33;;;14.30;;
4309;SDS011;2168;53.576;9.980;2023-02-12T05:17:59;220.33;;;16.13;;
4309;SDS011;2168;53.576;9.980;2023-02-12T05:20:24;142.53;;;12.30;;
4309;SDS011;2168;53.576;9.980;2023-02-12T05:22:51;44.13;;;10.20;;
4309;SDS011;2168;53.576;9.980;2023-02-12T05:25:16;268.80;;;18.73;;
4309;SDS011;2168;53.576;9.980;2023-02-12T05:27:41;152.37;;;14.10;;
4309;SDS011;2168;53.576;9.980;2023-02-12T05:30:07;118.87;;;14.93;;
4309;SDS011;2168;53.576;9.980;2023-02-12T05:32:33;115.60;;;12.53;;
4309;SDS011;2168;53.576;9.980;2023-02-12T05:34:58;219.97;;;14.37;;
4309;SDS011;2168;53.576;9.980;2023-02-12T05:37:23;126.37;;;13.07;;
4309;SDS011;2168;53.576;9.980;2023-02-12T05:39:49;29.23;;;10.57;;
4309;SDS011;2168;53.576;9.980;2023-02-12T05:42:14;477.23;;;27.60;;
4309;SDS011;2168;53.576;9.980;2023-02-12T05:44:39;51.00;;;11.60;;
4309;SDS011;2168;53.576;9.980;2023-02-12T05:47:05;243.60;;;16.63;;
4309;SDS011;2168;53.576;9.980;2023-02-12T05:49:30;100.17;;;13.80;;
4309;SDS011;2168;53.576;9.980;2023-02-12T05:51:55;81.93;;;11.07;;
4309;SDS011;2168;53.576;9.980;2023-02-12T05:54:20;83.67;;;12.43;;
4309;SDS011;2168;53.576;9.980;2023-02-12T05:56:46;136.27;;;14.07;;
4309;SDS011;2168;53.576;9.980;2023-02-12T05:59:13;56.73;;;11.57;;
4309;SDS011;2168;53.576;9.980;2023-02-12T06:01:39;225.97;;;15.83;;
4309;SDS011;2168;53.576;9.980;2023-02-12T06:04:05;63.43;;;11.87;;
4309;SDS011;2168;53.576;9.980;2023-02-12T06:06:31;246.27;;;17.73;;
4309;SDS011;2168;53.576;9.980;2023-02-12T06:08:57;55.37;;;10.30;;
4309;SDS011;2168;53.576;9.980;2023-02-12T06:11:22;83.07;;;11.27;;
4309;SDS011;2168;53.576;9.980;2023-02-12T06:13:48;237.03;;;16.53;;
4309;SDS011;2168;53.576;9.980;2023-02-12T06:16:23;79.80;;;10.47;;
4309;SDS011;2168;53.576;9.980;2023-02-12T06:18:49;233.83;;;16.10;;
4309;SDS011;2168;53.576;9.980;2023-02-12T06:21:15;353.40;;;20.30;;
4309;SDS011;2168;53.576;9.980;2023-02-12T06:23:40;78.73;;;11.47;;
4309;SDS011;2168;53.576;9.980;2023-02-12T06:26:05;76.37;;;10.60;;
4309;SDS011;2168;53.576;9.980;2023-02-12T06:28:31;120.53;;;13.40;;
4309;SDS011;2168;53.576;9.980;2023-02-12T06:30:56;347.30;;;20.20;;
4309;SDS011;2168;53.576;9.980;2023-02-12T06:33:21;50.17;;;10.80;;
4309;SDS011;2168;53.576;9.980;2023-02-12T06:35:46;157.13;;;14.60;;
4309;SDS011;2168;53.576;9.980;2023-02-12T06:38:12;122.37;;;13.37;;
4309;SDS011;2168;53.576;9.980;2023-02-12T06:40:37;109.47;;;11.80;;
4309;SDS011;2168;53.576;9.980;2023-02-12T06:43:02;114.03;;;11.93;;
4309;SDS011;2168;53.576;9.980;2023-02-12T06:45:27;45.80;;;10.00;;
4309;SDS011;2168;53.576;9.980;2023-02-12T06:47:52;179.73;;;16.57;;
4309;SDS011;2168;53.576;9.980;2023-02-12T06:50:17;160.00;;;14.90;;
4309;SDS011;2168;53.576;9.980;2023-02-12T06:52:43;29.50;;;10.07;;
4309;SDS011;2168;53.576;9.980;2023-02-12T06:55:08;129.17;;;13.53;;
4309;SDS011;2168;53.576;9.980;2023-02-12T06:57:33;142.13;;;14.07;;
4309;SDS011;2168;53.576;9.980;2023-02-12T06:59:58;68.40;;;12.60;;
4309;SDS011;2168;53.576;9.980;2023-02-12T07:02:23;144.00;;;14.70;;
4309;SDS011;2168;53.576;9.980;2023-02-12T07:04:49;121.67;;;14.80;;
4309;SDS011;2168;53.576;9.980;2023-02-12T07:07:14;326.13;;;19.23;;
4309;SDS011;2168;53.576;9.980;2023-02-12T07:09:39;126.47;;;16.03;;
4309;SDS011;2168;53.576;9.980;2023-02-12T07:12:04;73.77;;;13.77;;
4309;SDS011;2168;53.576;9.980;2023-02-12T07:14:30;57.37;;;12.57;;
4309;SDS011;2168;53.576;9.980;2023-02-12T07:16:55;67.17;;;12.40;;
4309;SDS011;2168;53.576;9.980;2023-02-12T07:19:21;57.03;;;13.70;;
4309;SDS011;2168;53.576;9.980;2023-02-12T07:21:46;54.87;;;12.10;;
4309;SDS011;2168;53.576;9.980;2023-02-12T07:24:11;37.67;;;12.03;;
4309;SDS011;2168;53.576;9.980;2023-02-12T07:26:37;43.57;;;11.37;;
4309;SDS011;2168;53.576;9.980;2023-02-12T07:29:03;206.40;;;17.47;;
4309;SDS011;2168;53.576;9.980;2023-02-12T07:31:28;251.73;;;18.83;;
4309;SDS011;2168;53.576;9.980;2023-02-12T07:33:54;67.60;;;12.23;;
4309;SDS011;2168;53.576;9.980;2023-02-12T07:36:20;38.63;;;11.87;;
4309;SDS011;2168;53.576;9.980;2023-02-12T07:38:45;134.77;;;15.60;;
4309;SDS011;2168;53.576;9.980;2023-02-12T07:41:18;357.17;;;21.73;;
4309;SDS011;2168;53.576;9.980;2023-02-12T07:43:44;37.73;;;12.80;;
4309;SDS011;2168;53.576;9.980;2023-02-12T07:46:11;74.93;;;13.03;;
4309;SDS011;2168;53.576;9.980;2023-02-12T07:48:37;170.47;;;15.50;;
4309;SDS011;2168;53.576;9.980;2023-02-12T07:51:05;73.57;;;13.77;;
4309;SDS011;2168;53.576;9.980;2023-02-12T07:53:31;381.20;;;23.50;;
4309;SDS011;2168;53.576;9.980;2023-02-12T07:56:03;213.87;;;17.30;;
4309;SDS011;2168;53.576;9.980;2023-02-12T07:58:28;119.27;;;14.30;;
4309;SDS011;2168;53.576;9.980;2023-02-12T08:00:54;87.13;;;15.23;;
4309;SDS011;2168;53.576;9.980;2023-02-12T08:03:19;134.40;;;16.53;;
4309;SDS011;2168;53.576;9.980;2023-02-12T08:05:44;46.53;;;13.97;;
4309;SDS011;2168;53.576;9.980;2023-02-12T08:08:09;208.73;;;22.03;;
4309;SDS011;2168;53.576;9.980;2023-02-12T08:10:34;76.97;;;14.73;;
4309;SDS011;2168;53.576;9.980;2023-02-12T08:12:59;115.23;;;15.67;;
4309;SDS011;2168;53.576;9.980;2023-02-12T08:15:25;115.20;;;15.60;;
4309;SDS011;2168;53.576;9.980;2023-02-12T08:17:50;59.07;;;15.10;;
4309;SDS011;2168;53.576;9.980;2023-02-12T08:20:15;69.23;;;15.57;;
4309;SDS011;2168;53.576;9.980;2023-02-12T08:22:40;45.30;;;15.27;;
4309;SDS011;2168;53.576;9.980;2023-02-12T08:25:06;52.63;;;16.33;;
4309;SDS011;2168;53.576;9.980;2023-02-12T08:27:32;181.43;;;18.13;;
4309;SDS011;2168;53.576;9.980;2023-02-12T08:29:57;40.17;;;14.50;;
4309;SDS011;2168;53.576;9.980;2023-02-12T08:32:22;59.50;;;16.20;;
4309;SDS011;2168;53.576;9.980;2023-02-12T08:34:47;68.40;;;15.70;;
4309;SDS011;2168;53.576;9.980;2023-02-12T08:37:13;70.17;;;16.50;;
4309;SDS011;2168;53.576;9.980;2023-02-12T08:39:38;39.20;;;14.60;;
4309;SDS011;2168;53.576;9.980;2023-02-12T08:42:03;81.90;;;16.10;;
4309;SDS011;2168;53.576;9.980;2023-02-12T08:44:29;59.17;;;16.17;;
4309;SDS011;2168;53.576;9.980;2023-02-12T08:46:55;62.30;;;16.43;;
4309;SDS011;2168;53.576;9.980;2023-02-12T08:49:21;46.03;;;15.70;;
4309;SDS011;2168;53.576;9.980;2023-02-12T08:51:47;39.47;;;15.70;;
4309;SDS011;2168;53.576;9.980;2023-02-12T08:54:14;48.13;;;15.50;;
4309;SDS011;2168;53.576;9.980;2023-02-12T08:56:40;51.33;;;15.27;;
4309;SDS011;2168;53.576;9.980;2023-02-12T08:59:05;36.83;;;14.93;;
4309;SDS011;2168;53.576;9.980;2023-02-12T09:01:32;40.07;;;15.30;;
4309;SDS011;2168;53.576;9.980;2023-02-12T09:03:57;36.03;;;16.07;;
4309;SDS011;2168;53.576;9.980;2023-02-12T09:06:24;31.40;;;14.43;;
4309;SDS011;2168;53.576;9.980;2023-02-12T09:08:49;37.80;;;15.00;;
4309;SDS011;2168;53.576;9.980;2023-02-12T09:11:16;38.07;;;15.30;;
4309;SDS011;2168;53.576;9.980;2023-02-12T09:13:42;35.40;;;15.37;;
4309;SDS011;2168;53.576;9.980;2023-02-12T09:16:07;37.67;;;15.30;;
4309;SDS011;2168;53.576;9.980;2023-02-12T09:18:33;37.37;;;16.90;;
4309;SDS011;2168;53.576;9.980;2023-02-12T09:20:59;39.07;;;16.37;;
4309;SDS011;2168;53.576;9.980;2023-02-12T09:23:25;37.20;;;15.00;;
4309;SDS011;2168;53.576;9.980;2023-02-12T09:25:50;32.83;;;15.00;;
4309;SDS011;2168;53.576;9.980;2023-02-12T09:28:15;29.30;;;14.27;;
4309;SDS011;2168;53.576;9.980;2023-02-12T09:30:40;29.17;;;13.80;;
4309;SDS011;2168;53.576;9.980;2023-02-12T09:33:07;33.23;;;14.97;;
4309;SDS011;2168;53.576;9.980;2023-02-12T09:35:34;34.10;;;15.50;;
4309;SDS011;2168;53.576;9.980;2023-02-12T09:37:59;34.60;;;13.50;;
4309;SDS011;2168;53.576;9.980;2023-02-12T09:45:36;35.43;;;15.03;;
4309;SDS011;2168;53.576;9.980;2023-02-12T09:48:22;33.17;;;14.43;;
4309;SDS011;2168;53.576;9.980;2023-02-12T09:50:55;37.70;;;14.43;;
4309;SDS011;2168;53.576;9.980;2023-02-12T09:53:23;36.97;;;15.27;;
4309;SDS011;2168;53.576;9.980;2023-02-12T09:55:48;33.33;;;15.00;;
4309;SDS011;2168;53.576;9.980;2023-02-12T09:58:15;40.37;;;15.20;;
4309;SDS011;2168;53.576;9.980;2023-02-12T10:00:43;30.67;;;15.60;;
4309;SDS011;2168;53.576;9.980;2023-02-12T10:03:11;27.67;;;14.50;;
4309;SDS011;2168;53.576;9.980;2023-02-12T10:05:39;31.10;;;15.60;;
4309;SDS011;2168;53.576;9.980;2023-02-12T10:10:52;27.90;;;15.23;;
4309;SDS011;2168;53.576;9.980;2023-02-12T10:15:49;30.23;;;14.20;;
4309;SDS011;2168;53.576;9.980;2023-02-12T10:18:26;35.00;;;15.50;;
4309;SDS011;2168;53.576;9.980;2023-02-12T10:23:35;30.00;;;15.27;;
4309;SDS011;2168;53.576;9.980;2023-02-12T10:28:39;43.80;;;14.43;;
4309;SDS011;2168;53.576;9.980;2023-02-12T10:31:06;28.13;;;14.47;;
4309;SDS011;2168;53.576;9.980;2023-02-12T10:33:46;29.93;;;15.27;;
4309;SDS011;2168;53.576;9.980;2023-02-12T10:38:51;27.87;;;13.87;;
4309;SDS011;2168;53.576;9.980;2023-02-12T10:41:17;30.97;;;14.27;;
4309;SDS011;2168;53.576;9.980;2023-02-12T10:43:42;36.47;;;14.67;;
4309;SDS011;2168;53.576;9.980;2023-02-12T10:46:14;32.60;;;14.23;;
4309;SDS011;2168;53.576;9.980;2023-02-12T10:48:39;42.67;;;15.57;;
4309;SDS011;2168;53.576;9.980;2023-02-12T10:53:33;25.60;;;13.43;;
4309;SDS011;2168;53.576;9.980;2023-02-12T10:56:07;24.07;;;13.57;;
4309;SDS011;2168;53.576;9.980;2023-02-12T10:58:34;23.77;;;12.27;;
4309;SDS011;2168;53.576;9.980;2023-02-12T11:00:59;25.00;;;13.30;;
4309;SDS011;2168;53.576;9.980;2023-02-12T11:03:29;22.77;;;11.83;;
4309;SDS011;2168;53.576;9.980;2023-02-12T11:06:07;24.70;;;12.23;;
4309;SDS011;2168;53.576;9.980;2023-02-12T11:08:35;25.20;;;9.90;;
4309;SDS011;2168;53.576;9.980;2023-02-12T11:11:07;16.33;;;10.87;;
4309;SDS011;2168;53.576;9.980;2023-02-12T11:13:32;18.20;;;11.63;;
4309;SDS011;2168;53.576;9.980;2023-02-12T11:15:58;27.83;;;12.03;;
4309;SDS011;2168;53.576;9.980;2023-02-12T11:18:25;20.83;;;11.50;;
4309;SDS011;2168;53.576;9.980;2023-02-12T11:20:52;20.40;;;11.97;;
4309;SDS011;2168;53.576;9.980;2023-02-12T11:23:23;19.90;;;11.67;;
4309;SDS011;2168;53.576;9.980;2023-02-12T11:25:56;15.30;;;10.53;;
4309;SDS011;2168;53.576;9.980;2023-02-12T11:28:21;21.27;;;10.77;;
4309;SDS011;2168;53.576;9.980;2023-02-12T11:30:48;17.13;;;9.93;;
4309;SDS011;2168;53.576;9.980;2023-02-12T11:33:24;16.57;;;9.80;;
4309;SDS011;2168;53.576;9.980;2023-02-12T11:35:54;17.10;;;10.43;;
4309;SDS011;2168;53.576;9.980;2023-02-12T11:38:24;18.33;;;10.97;;
4309;SDS011;2168;53.576;9.980;2023-02-12T11:40:51;27.47;;;11.70;;
4309;SDS011;2168;53.576;9.980;2023-02-12T11:43:17;20.57;;;11.77;;
4309;SDS011;2168;53.576;9.980;2023-02-12T11:45:44;26.17;;;12.30;;
4309;SDS011;2168;53.576;9.980;2023-02-12T11:48:54;23.97;;;11.17;;
4309;SDS011;2168;53.576;9.980;2023-02-12T11:51:01;22.23;;;10.90;;
4309;SDS011;2168;53.576;9.980;2023-02-12T11:53:28;25.03;;;12.10;;
4309;SDS011;2168;53.576;9.980;2023-02-12T11:55:58;25.20;;;11.00;;
4309;SDS011;2168;53.576;9.980;2023-02-12T11:58:25;19.90;;;9.73;;
4309;SDS011;2168;53.576;9.980;2023-02-12T12:06:01;18.47;;;10.10;;
4309;SDS011;2168;53.576;9.980;2023-02-12T12:08:39;27.47;;;11.93;;
4309;SDS011;2168;53.576;9.980;2023-02-12T12:11:13;22.70;;;8.60;;
4309;SDS011;2168;53.576;9.980;2023-02-12T12:13:47;24.87;;;10.47;;
4309;SDS011;2168;53.576;9.980;2023-02-12T12:25:11;18.13;;;10.47;;
4309;SDS011;2168;53.576;9.980;2023-02-12T12:27:42;23.50;;;11.80;;
4309;SDS011;2168;53.576;9.980;2023-02-12T12:32:59;19.07;;;10.13;;
4309;SDS011;2168;53.576;9.980;2023-02-12T12:35:35;22.20;;;11.20;;
4309;SDS011;2168;53.576;9.980;2023-02-12T12:39:04;16.77;;;9.80;;
4309;SDS011;2168;53.576;9.980;2023-02-12T12:41:09;16.97;;;10.20;;
4309;SDS011;2168;53.576;9.980;2023-02-12T12:44:22;18.57;;;10.17;;
4309;SDS011;2168;53.576;9.980;2023-02-12T12:49:02;12.40;;;8.20;;
4309;SDS011;2168;53.576;9.980;2023-02-12T12:51:52;16.00;;;8.87;;
4309;SDS011;2168;53.576;9.980;2023-02-12T12:54:31;12.00;;;7.93;;
4309;SDS011;2168;53.576;9.980;2023-02-12T12:57:03;11.70;;;8.40;;
4309;SDS011;2168;53.576;9.980;2023-02-12T13:02:04;9.43;;;7.30;;
4309;SDS011;2168;53.576;9.980;2023-02-12T13:09:39;9.97;;;7.63;;
4309;SDS011;2168;53.576;9.980;2023-02-12T13:12:32;9.03;;;7.00;;
4309;SDS011;2168;53.576;9.980;2023-02-12T13:17:35;8.63;;;6.30;;
4309;SDS011;2168;53.576;9.980;2023-02-12T13:22:54;8.00;;;6.13;;
4309;SDS011;2168;53.576;9.980;2023-02-12T13:25:23;6.30;;;5.70;;
4309;SDS011;2168;53.576;9.980;2023-02-12T13:27:51;7.33;;;6.37;;
4309;SDS011;2168;53.576;9.980;2023-02-12T13:30:18;6.90;;;6.20;;
4309;SDS011;2168;53.576;9.980;2023-02-12T13:32:46;6.53;;;6.03;;
4309;SDS011;2168;53.576;9.980;2023-02-12T13:35:20;7.97;;;7.17;;
4309;SDS011;2168;53.576;9.980;2023-02-12T13:37:46;7.30;;;6.60;;
4309;SDS011;2168;53.576;9.980;2023-02-12T13:40:27;6.40;;;5.90;;
4309;SDS011;2168;53.576;9.980;2023-02-12T13:42:55;7.23;;;6.53;;
4309;SDS011;2168;53.576;9.980;2023-02-12T13:45:29;7.93;;;7.20;;
4309;SDS011;2168;53.576;9.980;2023-02-12T13:50:35;7.20;;;6.50;;
4309;SDS011;2168;53.576;9.980;2023-02-12T13:53:10;6.33;;;5.70;;
4309;SDS011;2168;53.576;9.980;2023-02-12T14:03:24;5.90;;;4.73;;
4309;SDS011;2168;53.576;9.980;2023-02-12T14:06:09;5.37;;;4.97;;
4309;SDS011;2168;53.576;9.980;2023-02-12T14:08:37;6.70;;;5.10;;
4309;SDS011;2168;53.576;9.980;2023-02-12T14:11:06;6.23;;;5.60;;
4309;SDS011;2168;53.576;9.980;2023-02-12T14:13:32;5.40;;;4.90;;
4309;SDS011;2168;53.576;9.980;2023-02-12T14:16:17;6.60;;;6.00;;
4309;SDS011;2168;53.576;9.980;2023-02-12T14:18:42;6.17;;;5.67;;
4309;SDS011;2168;53.576;9.980;2023-02-12T14:23:32;7.28;;;6.43;;
4309;SDS011;2168;53.576;9.980;2023-02-12T14:33:38;9.47;;;6.67;;
4309;SDS011;2168;53.576;9.980;2023-02-12T14:36:13;8.83;;;7.20;;
4309;SDS011;2168;53.576;9.980;2023-02-12T14:46:44;13.83;;;7.60;;
4309;SDS011;2168;53.576;9.980;2023-02-12T14:49:20;11.30;;;7.73;;
4309;SDS011;2168;53.576;9.980;2023-02-12T14:51:56;11.10;;;8.03;;
4309;SDS011;2168;53.576;9.980;2023-02-12T14:54:33;10.60;;;7.80;;
4309;SDS011;2168;53.576;9.980;2023-02-12T14:57:03;13.90;;;7.77;;
4309;SDS011;2168;53.576;9.980;2023-02-12T14:59:31;10.40;;;8.27;;
4309;SDS011;2168;53.576;9.980;2023-02-12T15:01:57;11.93;;;7.53;;
4309;SDS011;2168;53.576;9.980;2023-02-12T15:04:25;10.90;;;7.27;;
4309;SDS011;2168;53.576;9.980;2023-02-12T15:07:52;9.83;;;6.80;;
4309;SDS011;2168;53.576;9.980;2023-02-12T15:09:55;9.73;;;6.80;;
4309;SDS011;2168;53.576;9.980;2023-02-12T15:14:55;8.70;;;6.50;;
4309;SDS011;2168;53.576;9.980;2023-02-12T15:17:25;10.20;;;6.07;;
4309;SDS011;2168;53.576;9.980;2023-02-12T15:22:21;8.07;;;6.60;;
4309;SDS011;2168;53.576;9.980;2023-02-12T15:24:47;10.00;;;6.40;;
4309;SDS011;2168;53.576;9.980;2023-02-12T15:27:13;7.47;;;5.80;;
4309;SDS011;2168;53.576;9.980;2023-02-12T15:32:05;7.35;;;6.03;;
4309;SDS011;2168;53.576;9.980;2023-02-12T15:34:32;6.90;;;5.60;;
4309;SDS011;2168;53.576;9.980;2023-02-12T15:36:59;6.23;;;5.63;;
4309;SDS011;2168;53.576;9.980;2023-02-12T15:39:25;8.50;;;5.93;;
4309;SDS011;2168;53.576;9.980;2023-02-12T15:41:51;6.53;;;5.70;;
4309;SDS011;2168;53.576;9.980;2023-02-12T15:44:26;6.63;;;5.97;;
4309;SDS011;2168;53.576;9.980;2023-02-12T15:46:56;6.17;;;5.57;;
4309;SDS011;2168;53.576;9.980;2023-02-12T15:49:25;6.50;;;5.90;;
4309;SDS011;2168;53.576;9.980;2023-02-12T15:51:50;6.93;;;6.17;;
4309;SDS011;2168;53.576;9.980;2023-02-12T15:54:17;5.97;;;5.13;;
4309;SDS011;2168;53.576;9.980;2023-02-12T15:56:43;6.30;;;5.43;;
4309;SDS011;2168;53.576;9.980;2023-02-12T15:59:14;5.13;;;4.70;;
4309;SDS011;2168;53.576;9.980;2023-02-12T16:01:50;5.03;;;4.30;;
4309;SDS011;2168;53.576;9.980;2023-02-12T16:04:16;5.27;;;4.77;;
4309;SDS011;2168;53.576;9.980;2023-02-12T16:06:41;4.57;;;4.17;;
4309;SDS011;2168;53.576;9.980;2023-02-12T16:09:07;4.40;;;4.00;;
4309;SDS011;2168;53.576;9.980;2023-02-12T16:11:33;4.43;;;4.13;;
4309;SDS011;2168;53.576;9.980;2023-02-12T16:14:00;4.93;;;4.30;;
4309;SDS011;2168;53.576;9.980;2023-02-12T16:16:27;4.33;;;3.93;;
4309;SDS011;2168;53.576;9.980;2023-02-12T16:21:37;4.50;;;4.10;;
4309;SDS011;2168;53.576;9.980;2023-02-12T16:24:02;4.67;;;3.80;;
4309;SDS011;2168;53.576;9.980;2023-02-12T16:26:28;4.33;;;4.03;;
4309;SDS011;2168;53.576;9.980;2023-02-12T16:28:54;4.27;;;3.87;;
4309;SDS011;2168;53.576;9.980;2023-02-12T16:31:20;4.97;;;4.20;;
4309;SDS011;2168;53.576;9.980;2023-02-12T16:33:47;3.80;;;3.50;;
4309;SDS011;2168;53.576;9.980;2023-02-12T16:38:48;4.60;;;4.20;;
4309;SDS011;2168;53.576;9.980;2023-02-12T16:41:17;4.63;;;3.80;;
4309;SDS011;2168;53.576;9.980;2023-02-12T16:44:19;5.73;;;4.97;;
4309;SDS011;2168;53.576;9.980;2023-02-12T16:49:12;7.57;;;4.90;;
4309;SDS011;2168;53.576;9.980;2023-02-12T16:51:38;7.80;;;5.50;;
4309;SDS011;2168;53.576;9.980;2023-02-12T16:54:03;5.33;;;4.50;;
4309;SDS011;2168;53.576;9.980;2023-02-12T16:56:47;5.53;;;4.30;;
4309;SDS011;2168;53.576;9.980;2023-02-12T16:59:12;5.00;;;4.60;;
4309;SDS011;2168;53.576;9.980;2023-02-12T17:01:38;5.10;;;4.60;;
4309;SDS011;2168;53.576;9.980;2023-02-12T17:04:04;5.70;;;5.10;;
4309;SDS011;2168;53.576;9.980;2023-02-12T17:06:31;5.03;;;4.63;;
4309;SDS011;2168;53.576;9.980;2023-02-12T17:08:57;5.47;;;5.00;;
4309;SDS011;2168;53.576;9.980;2023-02-12T17:11:22;5.50;;;5.00;;